createdAt,value
2019-04-14T00:01:10.828Z,98973.83
2019-04-14T00:02:27.485Z,98971.66
2019-04-14T00:03:41.084Z,98967.30
2019-04-14T00:04:50.955Z,98972.58
2019-04-14T00:06:06.992Z,98965.97
2019-04-14T00:07:15.160Z,98964.65
2019-04-14T00:08:24.100Z,98969.09
2019-04-14T00:09:33.635Z,98958.63
2019-04-14T00:10:42.239Z,98967.39
2019-04-14T00:11:50.506Z,98963.91
2019-04-14T00:12:59.970Z,98967.88
2019-04-14T00:14:08.216Z,98965.23
2019-04-14T00:15:24.471Z,98962.58
2019-04-14T00:16:27.023Z,98967.77
2019-04-14T00:17:35.500Z,98955.13
2019-04-14T00:18:44.658Z,98960.42
2019-04-14T00:19:52.901Z,98958.25
2019-04-14T00:21:02.179Z,98956.55
2019-04-14T00:22:11.578Z,98957.14
2019-04-14T00:23:20.039Z,98958.45
2019-04-14T00:24:29.101Z,98954.94
2019-04-14T00:25:37.367Z,98954.67
2019-04-14T00:26:46.691Z,98958.16
2019-04-14T00:27:56.250Z,98952.88
2019-04-14T00:29:06.685Z,98956.36
2019-04-14T00:30:18.813Z,98953.72
2019-04-14T00:31:28.543Z,98952.02
2019-04-14T00:32:38.545Z,98954.67
2019-04-14T00:33:47.570Z,98945.89
2019-04-14T00:35:01.655Z,98942.41
2019-04-14T00:36:11.582Z,98948.06
2019-04-14T00:37:25.200Z,98949.48
2019-04-14T00:38:35.188Z,98950.81
2019-04-14T00:40:08.312Z,98946.36
2019-04-14T00:41:18.457Z,98952.88
2019-04-14T00:42:40.896Z,98941.55
2019-04-14T00:43:50.819Z,98943.72
2019-04-14T00:45:00.639Z,98942.88
2019-04-14T00:46:13.240Z,98947.80
2019-04-14T00:47:26.772Z,98949.48
2019-04-14T00:48:36.502Z,98945.99
2019-04-14T00:49:46.158Z,98949.96
2019-04-14T00:50:54.236Z,98951.55
2019-04-14T00:52:03.550Z,98942.77
2019-04-14T00:53:12.071Z,98943.61
2019-04-14T00:54:21.687Z,98946.73
2019-04-14T00:55:29.737Z,98947.11
2019-04-14T00:56:39.014Z,98945.68
2019-04-14T00:57:47.159Z,98947.00
2019-04-14T00:58:56.140Z,98943.52
2019-04-14T01:00:06.277Z,98949.20
2019-04-14T01:01:15.483Z,98947.00
2019-04-14T01:02:23.925Z,98950.05
2019-04-14T01:03:33.032Z,98936.53
2019-04-14T01:04:42.645Z,98944.46
2019-04-14T01:05:50.860Z,98946.16
2019-04-14T01:07:00.135Z,98937.38
2019-04-14T01:08:09.619Z,98949.20
2019-04-14T01:09:19.401Z,98943.81
2019-04-14T01:10:27.982Z,98949.84
2019-04-14T01:11:36.014Z,98947.56
2019-04-14T01:12:45.315Z,98942.75
2019-04-14T01:13:54.829Z,98945.40
2019-04-14T01:15:03.551Z,98946.61
2019-04-14T01:16:18.388Z,98951.53
2019-04-14T01:17:22.167Z,98948.41
2019-04-14T01:18:31.941Z,98944.81
2019-04-14T01:19:40.265Z,98949.19
2019-04-14T01:20:51.323Z,98951.42
2019-04-14T01:21:59.577Z,98949.19
2019-04-14T01:23:08.457Z,98946.98
2019-04-14T01:24:16.713Z,98949.19
2019-04-14T01:25:26.075Z,98948.31
2019-04-14T01:26:35.551Z,98945.22
2019-04-14T01:27:45.033Z,98951.36
2019-04-14T01:28:53.080Z,98946.91
2019-04-14T01:30:02.556Z,98942.95
2019-04-14T01:31:11.886Z,98951.65
2019-04-14T01:32:20.338Z,98947.20
2019-04-14T01:33:29.378Z,98949.27
2019-04-14T01:34:39.051Z,98945.41
2019-04-14T01:35:48.798Z,98944.94
2019-04-14T01:36:58.450Z,98941.34
2019-04-14T01:38:07.897Z,98946.63
2019-04-14T01:39:17.549Z,98947.47
2019-04-14T01:40:27.083Z,98947.47
2019-04-14T01:41:35.348Z,98944.83
2019-04-14T01:42:44.217Z,98948.80
2019-04-14T01:43:52.473Z,98943.14
2019-04-14T01:45:01.408Z,98945.41
2019-04-14T01:46:16.097Z,98944.94
2019-04-14T01:47:20.462Z,98954.09
2019-04-14T01:48:28.972Z,98949.75
2019-04-14T01:49:38.090Z,98948.80
2019-04-14T01:50:47.963Z,98946.55
2019-04-14T01:52:15.053Z,98953.53
2019-04-14T01:53:31.503Z,98946.92
2019-04-14T01:54:45.326Z,98947.88
2019-04-14T01:55:57.726Z,98950.59
2019-04-14T01:57:22.666Z,98951.44
2019-04-14T01:58:33.906Z,98953.23
2019-04-14T01:59:42.419Z,98951.55
2019-04-14T02:00:55.406Z,98950.33
2019-04-14T02:02:05.119Z,98956.09
2019-04-14T02:03:13.388Z,98955.62
2019-04-14T02:04:22.406Z,98947.69
2019-04-14T02:05:53.939Z,98942.95
2019-04-14T02:07:03.723Z,98950.59
2019-04-14T02:08:13.457Z,98945.41
2019-04-14T02:09:22.890Z,98945.52
2019-04-14T02:10:32.587Z,98944.19
2019-04-14T02:11:40.810Z,98948.23
2019-04-14T02:12:49.608Z,98945.99
2019-04-14T02:13:59.128Z,98943.34
2019-04-14T02:15:09.424Z,98944.67
2019-04-14T02:16:25.857Z,98945.22
2019-04-14T02:17:28.407Z,98949.19
2019-04-14T02:18:38.309Z,98944.81
2019-04-14T02:19:48.001Z,98943.97
2019-04-14T02:21:15.626Z,98947.86
2019-04-14T02:22:24.534Z,98945.30
2019-04-14T02:23:32.797Z,98942.75
2019-04-14T02:24:41.729Z,98949.26
2019-04-14T02:25:49.835Z,98944.81
2019-04-14T02:26:59.029Z,98952.75
2019-04-14T02:28:07.527Z,98946.44
2019-04-14T02:29:16.827Z,98945.22
2019-04-14T02:30:31.335Z,98947.46
2019-04-14T02:32:01.422Z,98945.40
2019-04-14T02:33:15.395Z,98948.41
2019-04-14T02:34:25.590Z,98944.81
2019-04-14T02:35:40.695Z,98950.11
2019-04-14T02:36:47.987Z,98949.26
2019-04-14T02:39:10.385Z,98946.72
2019-04-14T02:40:20.558Z,98950.69
2019-04-14T02:41:29.978Z,98946.24
2019-04-14T02:42:46.327Z,98947.09
2019-04-14T02:44:51.886Z,98949.73
2019-04-14T02:46:05.963Z,98948.31
2019-04-14T02:47:36.352Z,98946.14
2019-04-14T02:48:36.146Z,98944.74
2019-04-14T02:49:41.182Z,98946.84
2019-04-14T02:50:43.730Z,98942.47
2019-04-14T02:53:07.887Z,98941.07
2019-04-14T02:54:13.483Z,98937.95
2019-04-14T02:55:23.424Z,98942.39
2019-04-14T02:57:49.301Z,98944.74
2019-04-14T03:00:12.006Z,98947.86
2019-04-14T03:03:37.274Z,98945.77
2019-04-14T03:04:44.624Z,98946.83
2019-04-14T03:06:12.575Z,98950.42
2019-04-14T03:07:05.449Z,98943.91
2019-04-14T03:08:18.313Z,98954.94
2019-04-14T03:09:38.019Z,98946.63
2019-04-14T03:10:40.456Z,98951.66
2019-04-14T03:11:46.246Z,98941.08
2019-04-14T03:13:01.935Z,98946.26
2019-04-14T03:14:06.275Z,98943.72
2019-04-14T03:15:17.028Z,98952.39
2019-04-14T03:16:32.918Z,98950.23
2019-04-14T03:17:36.790Z,98952.02
2019-04-14T03:18:59.668Z,98946.73
2019-04-14T03:20:20.731Z,98944.78
2019-04-14T03:21:49.311Z,98952.23
2019-04-14T03:24:09.356Z,98938.82
2019-04-14T03:25:17.105Z,98948.45
2019-04-14T03:26:33.763Z,98948.55
2019-04-14T03:27:54.468Z,98947.70
2019-04-14T03:28:56.680Z,98947.70
2019-04-14T03:30:57.698Z,98946.96
2019-04-14T03:32:02.355Z,98945.16
2019-04-14T03:35:36.389Z,98941.94
2019-04-14T03:37:15.666Z,98945.53
2019-04-14T03:37:45.525Z,98943.84
2019-04-14T03:38:50.326Z,98950.34
2019-04-14T03:42:08.737Z,98953.47
2019-04-14T03:44:34.804Z,98959.88
2019-04-14T03:46:55.418Z,98957.81
2019-04-14T03:51:39.912Z,98961.88
2019-04-14T03:52:59.627Z,98962.36
2019-04-14T03:53:45.785Z,98962.25
2019-04-14T03:54:51.019Z,98959.98
2019-04-14T03:55:58.418Z,98958.19
2019-04-14T03:57:01.891Z,98963.58
2019-04-14T03:58:11.495Z,98959.71
2019-04-14T03:59:21.450Z,98964.63
2019-04-14T04:00:31.310Z,98964.16
2019-04-14T04:01:39.438Z,98965.10
2019-04-14T04:02:48.802Z,98965.17
2019-04-14T04:03:58.521Z,98963.78
2019-04-14T04:05:08.545Z,98961.21
2019-04-14T04:06:22.799Z,98961.69
2019-04-14T04:07:32.182Z,98951.90
2019-04-14T04:08:40.663Z,98966.97
2019-04-14T04:09:50.382Z,98957.72
2019-04-14T04:11:01.895Z,98960.20
2019-04-14T04:12:10.293Z,98956.61
2019-04-14T04:13:19.393Z,98950.95
2019-04-14T04:14:27.795Z,98963.21
2019-04-14T04:15:37.094Z,98955.39
2019-04-14T04:16:57.205Z,98962.00
2019-04-14T04:18:07.425Z,98961.52
2019-04-14T04:19:19.377Z,98961.89
2019-04-14T04:20:45.627Z,98957.92
2019-04-14T04:22:12.895Z,98962.27
2019-04-14T04:23:24.771Z,98959.63
2019-04-14T04:24:47.579Z,98957.66
2019-04-14T04:26:16.924Z,98961.15
2019-04-14T04:27:44.019Z,98956.41
2019-04-14T04:28:54.098Z,98953.02
2019-04-14T04:30:23.048Z,98957.94
2019-04-14T04:31:33.038Z,98957.56
2019-04-14T04:32:57.948Z,98961.62
2019-04-14T04:34:11.847Z,98966.81
2019-04-14T04:35:34.726Z,98960.58
2019-04-14T04:36:47.138Z,98973.42
2019-04-14T04:37:57.050Z,98958.11
2019-04-14T04:39:12.757Z,98962.84
2019-04-14T04:40:23.044Z,98963.80
2019-04-14T04:41:31.797Z,98967.36
2019-04-14T04:42:41.539Z,98959.91
2019-04-14T04:43:49.779Z,98964.55
2019-04-14T04:44:57.824Z,98972.84
2019-04-14T04:46:06.930Z,98973.80
2019-04-14T04:47:14.985Z,98974.38
2019-04-14T04:48:24.210Z,98972.67
2019-04-14T04:49:32.915Z,98970.31
2019-04-14T04:50:43.164Z,98963.87
2019-04-14T04:51:51.504Z,98975.31
2019-04-14T04:53:00.434Z,98965.49
2019-04-14T04:54:10.237Z,98962.85
2019-04-14T04:55:18.456Z,98972.27
2019-04-14T04:56:27.547Z,98975.28
2019-04-14T04:57:35.915Z,98977.02
2019-04-14T04:58:45.580Z,98975.76
2019-04-14T04:59:54.135Z,98979.66
2019-04-14T05:01:03.490Z,98980.13
2019-04-14T05:02:11.825Z,98980.13
2019-04-14T05:03:21.135Z,98980.50
2019-04-14T05:04:30.736Z,98983.98
2019-04-14T05:06:23.789Z,98981.34
2019-04-14T05:07:33.691Z,98982.37
2019-04-14T05:08:57.001Z,98981.14
2019-04-14T05:10:06.648Z,98985.41
2019-04-14T05:11:20.907Z,98990.70
2019-04-14T05:12:37.346Z,98988.91
2019-04-14T05:13:47.224Z,98989.82
2019-04-14T05:15:01.486Z,98993.41
2019-04-14T05:16:10.708Z,98994.19
2019-04-14T05:17:21.256Z,98990.22
2019-04-14T05:18:29.781Z,98992.66
2019-04-14T05:19:39.410Z,98997.38
2019-04-14T05:20:48.773Z,99002.19
2019-04-14T05:21:58.074Z,98989.92
2019-04-14T05:23:07.965Z,98988.50
2019-04-14T05:24:16.483Z,98993.61
2019-04-14T05:25:25.415Z,98994.46
2019-04-14T05:26:35.096Z,98994.36
2019-04-14T05:27:43.548Z,98996.36
2019-04-14T05:28:52.752Z,98998.89
2019-04-14T05:30:02.579Z,98992.19
2019-04-14T05:31:12.160Z,98998.62
2019-04-14T05:32:21.602Z,99001.06
2019-04-14T05:33:31.370Z,99001.53
2019-04-14T05:34:41.152Z,99005.50
2019-04-14T05:35:50.847Z,99010.69
2019-04-14T05:37:00.643Z,99001.70
2019-04-14T05:38:10.522Z,99002.00
2019-04-14T05:39:19.886Z,99003.70
2019-04-14T05:40:28.393Z,99001.90
2019-04-14T05:41:39.601Z,99006.44
2019-04-14T05:42:49.448Z,99001.63
2019-04-14T05:44:01.197Z,99003.42
2019-04-14T05:45:08.788Z,99007.66
2019-04-14T05:46:18.545Z,99007.93
2019-04-14T05:47:28.243Z,99005.66
2019-04-14T05:48:37.997Z,99009.08
2019-04-14T05:49:51.187Z,99010.77
2019-04-14T05:50:57.730Z,99008.50
2019-04-14T05:52:06.157Z,99008.50
2019-04-14T05:53:15.390Z,98999.25
2019-04-14T05:54:23.573Z,99001.05
2019-04-14T05:55:32.762Z,99009.24
2019-04-14T05:56:41.111Z,99008.50
2019-04-14T05:57:50.241Z,99007.45
2019-04-14T05:59:00.148Z,99007.75
2019-04-14T06:00:12.488Z,99010.29
2019-04-14T06:01:20.552Z,99003.20
2019-04-14T06:02:31.024Z,99007.36
2019-04-14T06:03:40.686Z,99018.79
2019-04-14T06:04:50.320Z,99014.83
2019-04-14T06:05:58.816Z,99020.95
2019-04-14T06:07:07.263Z,99016.08
2019-04-14T06:08:15.678Z,99015.86
2019-04-14T06:09:24.939Z,99014.91
2019-04-14T06:10:33.113Z,99021.35
2019-04-14T06:11:41.242Z,99012.57
2019-04-14T06:12:49.995Z,99012.09
2019-04-14T06:13:58.722Z,99019.66
2019-04-14T06:15:08.643Z,99015.76
2019-04-14T06:16:17.133Z,99014.91
2019-04-14T06:17:25.568Z,99021.45
2019-04-14T06:18:33.804Z,99012.67
2019-04-14T06:19:41.974Z,99023.15
2019-04-14T06:20:50.318Z,99020.13
2019-04-14T06:21:58.502Z,99026.64
2019-04-14T06:23:06.602Z,99026.43
2019-04-14T06:24:27.050Z,99018.87
2019-04-14T06:25:36.439Z,99024.56
2019-04-14T06:26:44.805Z,99028.32
2019-04-14T06:27:52.809Z,99020.96
2019-04-14T06:29:00.919Z,99021.97
2019-04-14T06:30:27.253Z,99024.52
2019-04-14T06:31:48.855Z,99032.85
2019-04-14T06:32:58.480Z,99027.56
2019-04-14T06:34:24.593Z,99031.32
2019-04-14T06:35:34.330Z,99028.30
2019-04-14T06:36:42.372Z,99030.95
2019-04-14T06:37:54.156Z,99033.59
2019-04-14T06:39:04.068Z,99027.34
2019-04-14T06:40:12.113Z,99032.06
2019-04-14T06:41:20.645Z,99039.05
2019-04-14T06:42:29.239Z,99036.80
2019-04-14T06:43:48.329Z,99038.87
2019-04-14T06:44:47.616Z,99044.16
2019-04-14T06:45:56.005Z,99035.85
2019-04-14T06:47:05.124Z,99043.31
2019-04-14T06:48:13.420Z,99047.07
2019-04-14T06:49:21.732Z,99043.40
2019-04-14T06:50:30.200Z,99046.42
2019-04-14T06:51:38.206Z,99052.19
2019-04-14T06:52:46.987Z,99043.88
2019-04-14T06:53:55.110Z,99046.89
2019-04-14T06:55:03.468Z,99047.37
2019-04-14T06:56:11.684Z,99047.73
2019-04-14T06:57:19.804Z,99053.14
2019-04-14T06:58:28.241Z,99052.66
2019-04-14T06:59:36.424Z,99053.88
2019-04-14T07:00:44.745Z,99053.51
2019-04-14T07:01:53.655Z,99063.52
2019-04-14T07:03:01.989Z,99056.79
2019-04-14T07:04:10.689Z,99055.84
2019-04-14T07:05:18.739Z,99054.52
2019-04-14T07:06:27.581Z,99066.25
2019-04-14T07:07:35.897Z,99061.32
2019-04-14T07:08:44.724Z,99064.34
2019-04-14T07:09:52.854Z,99064.71
2019-04-14T07:11:01.422Z,99062.91
2019-04-14T07:12:09.727Z,99050.42
2019-04-14T07:13:19.572Z,99068.40
2019-04-14T07:14:31.666Z,99069.98
2019-04-14T07:15:38.724Z,99064.11
2019-04-14T07:16:47.328Z,99067.16
2019-04-14T07:17:55.428Z,99059.66
2019-04-14T07:19:03.904Z,99064.30
2019-04-14T07:20:12.669Z,99058.05
2019-04-14T07:21:20.942Z,99070.22
2019-04-14T07:22:29.250Z,99072.50
2019-04-14T07:23:37.859Z,99064.86
2019-04-14T07:24:46.628Z,99066.08
2019-04-14T07:25:55.072Z,99066.34
2019-04-14T07:27:03.187Z,99064.53
2019-04-14T07:28:11.573Z,99067.66
2019-04-14T07:29:20.283Z,99064.83
2019-04-14T07:30:29.983Z,99073.63
2019-04-14T07:31:56.488Z,99067.00
2019-04-14T07:33:06.311Z,99064.72
2019-04-14T07:34:20.416Z,99069.17
2019-04-14T07:35:39.761Z,99071.23
2019-04-14T07:37:07.316Z,99066.68
2019-04-14T07:38:17.175Z,99064.70
2019-04-14T07:39:31.549Z,99080.73
2019-04-14T07:40:50.693Z,99075.26
2019-04-14T07:42:03.449Z,99070.52
2019-04-14T07:43:13.535Z,99076.92
2019-04-14T07:44:25.033Z,99069.05
2019-04-14T07:45:51.343Z,99067.51
2019-04-14T07:47:13.873Z,99071.77
2019-04-14T07:48:24.032Z,99075.78
2019-04-14T07:49:43.265Z,99076.92
2019-04-14T07:50:51.678Z,99069.13
2019-04-14T07:52:15.188Z,99072.44
2019-04-14T07:53:28.645Z,99065.59
2019-04-14T07:54:44.555Z,99064.70
2019-04-14T07:56:01.527Z,99063.07
2019-04-14T07:57:28.402Z,99050.73
2019-04-14T07:58:41.085Z,99059.48
2019-04-14T07:59:57.115Z,99052.52
2019-04-14T08:01:09.990Z,99069.33
2019-04-14T08:02:20.232Z,99062.02
2019-04-14T08:03:47.160Z,99061.06
2019-04-14T08:04:59.768Z,99064.63
2019-04-14T08:06:07.998Z,99069.33
2019-04-14T08:07:16.936Z,99076.22
2019-04-14T08:08:26.023Z,99073.08
2019-04-14T08:09:34.630Z,99076.75
2019-04-14T08:10:43.307Z,99074.72
2019-04-14T08:11:51.799Z,99079.27
2019-04-14T08:13:00.736Z,99074.13
2019-04-14T08:14:09.082Z,99072.09
2019-04-14T08:15:17.477Z,99080.70
2019-04-14T08:16:26.131Z,99080.47
2019-04-14T08:17:34.874Z,99085.18
2019-04-14T08:18:43.112Z,99087.27
2019-04-14T08:19:51.488Z,99080.52
2019-04-14T08:21:00.408Z,99089.21
2019-04-14T08:22:08.656Z,99087.57
2019-04-14T08:23:16.646Z,99085.05
2019-04-14T08:24:25.262Z,99093.06
2019-04-14T08:25:33.589Z,99076.53
2019-04-14T08:26:41.914Z,99090.94
2019-04-14T08:27:50.309Z,99076.22
2019-04-14T08:28:58.527Z,99091.91
2019-04-14T08:30:09.239Z,99090.38
2019-04-14T08:31:17.350Z,99085.20
2019-04-14T08:32:25.996Z,99098.52
2019-04-14T08:33:34.790Z,99091.20
2019-04-14T08:34:43.673Z,99093.41
2019-04-14T08:35:51.888Z,99098.37
2019-04-14T08:37:00.102Z,99094.55
2019-04-14T08:38:08.737Z,99096.11
2019-04-14T08:39:16.969Z,99083.95
2019-04-14T08:40:25.402Z,99092.17
2019-04-14T08:41:35.439Z,99093.37
2019-04-14T08:43:00.500Z,99092.90
2019-04-14T08:44:13.456Z,99083.48
2019-04-14T08:45:39.569Z,99087.46
2019-04-14T08:46:55.139Z,99096.07
2019-04-14T08:48:21.159Z,99086.66
2019-04-14T08:49:37.138Z,99101.75
2019-04-14T08:50:59.065Z,99094.37
2019-04-14T08:52:24.400Z,99093.89
2019-04-14T08:53:40.064Z,99103.08
2019-04-14T08:54:52.763Z,99090.48
2019-04-14T08:56:09.854Z,99092.78
2019-04-14T08:57:27.005Z,99096.67
2019-04-14T08:58:36.740Z,99096.19
2019-04-14T09:00:02.738Z,99097.40
2019-04-14T09:01:12.744Z,99096.68
2019-04-14T09:02:23.701Z,99085.08
2019-04-14T09:03:34.917Z,99099.81
2019-04-14T09:04:44.630Z,99092.20
2019-04-14T09:05:55.493Z,99092.84
2019-04-14T09:07:14.779Z,99086.93
2019-04-14T09:08:34.087Z,99096.34
2019-04-14T09:09:44.583Z,99094.30
2019-04-14T09:10:55.027Z,99093.73
2019-04-14T09:12:15.294Z,99097.59
2019-04-14T09:13:17.314Z,99087.81
2019-04-14T09:14:25.626Z,99096.63
2019-04-14T09:15:34.392Z,99081.89
2019-04-14T09:16:42.644Z,99091.09
2019-04-14T09:17:51.041Z,99095.81
2019-04-14T09:19:07.600Z,99090.61
2019-04-14T09:20:09.898Z,99100.40
2019-04-14T09:21:17.944Z,99084.33
2019-04-14T09:22:26.241Z,99101.13
2019-04-14T09:23:34.645Z,99083.98
2019-04-14T09:24:43.243Z,99087.59
2019-04-14T09:25:51.335Z,99090.73
2019-04-14T09:26:59.761Z,99085.78
2019-04-14T09:28:08.220Z,99078.80
2019-04-14T09:29:16.426Z,99087.87
2019-04-14T09:30:24.715Z,99086.20
2019-04-14T09:31:33.021Z,99083.20
2019-04-14T09:32:41.031Z,99081.02
2019-04-14T09:33:49.321Z,99083.34
2019-04-14T09:34:57.514Z,99070.56
2019-04-14T09:36:06.349Z,99079.62
2019-04-14T09:37:14.786Z,99081.19
2019-04-14T09:38:23.198Z,99088.85
2019-04-14T09:39:31.979Z,99094.89
2019-04-14T09:40:40.329Z,99072.20
2019-04-14T09:41:48.657Z,99085.38
2019-04-14T09:42:57.794Z,99083.79
2019-04-14T09:44:06.610Z,99080.42
2019-04-14T09:45:15.014Z,99081.38
2019-04-14T09:46:23.668Z,99074.52
2019-04-14T09:47:31.849Z,99072.80
2019-04-14T09:48:42.796Z,99073.43
2019-04-14T09:49:50.016Z,99076.69
2019-04-14T09:51:04.693Z,99080.33
2019-04-14T09:52:08.122Z,99079.23
2019-04-14T09:53:16.316Z,99077.80
2019-04-14T09:54:24.911Z,99076.58
2019-04-14T09:55:33.600Z,99070.55
2019-04-14T09:56:42.254Z,99081.66
2019-04-14T09:57:50.720Z,99074.77
2019-04-14T09:58:59.000Z,99078.29
2019-04-14T10:00:09.040Z,99069.92
2019-04-14T10:01:17.208Z,99073.91
2019-04-14T10:02:25.480Z,99062.42
2019-04-14T10:03:35.631Z,99062.52
2019-04-14T10:04:43.970Z,99072.69
2019-04-14T10:05:52.626Z,99070.38
2019-04-14T10:07:00.955Z,99072.68
2019-04-14T10:08:09.521Z,99070.11
2019-04-14T10:09:17.762Z,99075.30
2019-04-14T10:10:26.066Z,99067.56
2019-04-14T10:11:34.339Z,99072.02
2019-04-14T10:12:42.649Z,99076.48
2019-04-14T10:13:51.885Z,99078.03
2019-04-14T10:15:00.483Z,99071.13
2019-04-14T10:16:08.890Z,99072.92
2019-04-14T10:17:17.629Z,99073.75
2019-04-14T10:18:26.390Z,99059.29
2019-04-14T10:19:35.075Z,99063.35
2019-04-14T10:20:43.460Z,99069.29
2019-04-14T10:21:51.730Z,99056.87
2019-04-14T10:23:00.078Z,99055.87
2019-04-14T10:24:08.740Z,99064.42
2019-04-14T10:25:17.021Z,99046.18
2019-04-14T10:26:25.622Z,99050.83
2019-04-14T10:27:34.460Z,99057.75
2019-04-14T10:28:42.888Z,99048.69
2019-04-14T10:29:51.492Z,99055.73
2019-04-14T10:31:00.463Z,99057.02
2019-04-14T10:32:08.779Z,99052.98
2019-04-14T10:33:17.346Z,99075.95
2019-04-14T10:34:25.842Z,99065.82
2019-04-14T10:35:33.884Z,99055.72
2019-04-14T10:36:42.325Z,99065.23
2019-04-14T10:37:50.703Z,99060.03
2019-04-14T10:38:59.202Z,99072.80
2019-04-14T10:40:08.128Z,99053.53
2019-04-14T10:41:16.481Z,99066.89
2019-04-14T10:42:25.542Z,99048.31
2019-04-14T10:43:33.821Z,99057.55
2019-04-14T10:44:41.941Z,99066.78
2019-04-14T10:45:50.261Z,99053.27
2019-04-14T10:46:58.586Z,99038.17
2019-04-14T10:48:06.734Z,99048.58
2019-04-14T10:49:14.750Z,99060.78
2019-04-14T10:50:30.787Z,99045.20
2019-04-14T10:51:34.140Z,99046.84
2019-04-14T10:52:42.668Z,99052.97
2019-04-14T10:53:50.792Z,99041.32
2019-04-14T10:54:59.086Z,99048.47
2019-04-14T10:56:07.940Z,99049.81
2019-04-14T10:57:16.545Z,99055.73
2019-04-14T10:58:25.041Z,99049.72
2019-04-14T10:59:33.067Z,99050.75
2019-04-14T11:00:41.961Z,99058.27
2019-04-14T11:01:49.938Z,99051.33
2019-04-14T11:02:57.938Z,99055.23
2019-04-14T11:04:08.022Z,99058.10
2019-04-14T11:05:15.868Z,99056.13
2019-04-14T11:06:35.886Z,99041.37
2019-04-14T11:07:43.832Z,99046.92
2019-04-14T11:08:52.047Z,99051.52
2019-04-14T11:10:00.225Z,99051.84
2019-04-14T11:11:08.485Z,99049.94
2019-04-14T11:12:16.614Z,99050.33
2019-04-14T11:13:25.856Z,99053.53
2019-04-14T11:14:35.046Z,99050.51
2019-04-14T11:15:44.269Z,99051.41
2019-04-14T11:16:52.171Z,99034.45
2019-04-14T11:18:00.645Z,99048.89
2019-04-14T11:19:09.530Z,99050.91
2019-04-14T11:20:18.077Z,99049.48
2019-04-14T11:21:26.929Z,99053.08
2019-04-14T11:22:35.552Z,99047.80
2019-04-14T11:23:43.792Z,99052.93
2019-04-14T11:24:51.883Z,99063.05
2019-04-14T11:26:00.185Z,99056.55
2019-04-14T11:27:08.264Z,99067.05
2019-04-14T11:28:16.486Z,99047.09
2019-04-14T11:29:24.912Z,99041.25
2019-04-14T11:30:33.502Z,99026.64
2019-04-14T11:31:41.710Z,99037.25
2019-04-14T11:33:00.926Z,99045.98
2019-04-14T11:34:10.280Z,99044.51
2019-04-14T11:35:20.961Z,99048.34
2019-04-14T11:36:30.894Z,99051.20
2019-04-14T11:37:48.418Z,99043.27
2019-04-14T11:38:59.067Z,99051.53
2019-04-14T11:40:09.787Z,99054.75
2019-04-14T11:41:19.524Z,99042.86
2019-04-14T11:42:27.868Z,99054.98
2019-04-14T11:43:35.942Z,99058.02
2019-04-14T11:44:44.691Z,99033.98
2019-04-14T11:45:53.382Z,99056.36
2019-04-14T11:47:04.877Z,99054.03
2019-04-14T11:48:13.350Z,99046.34
2019-04-14T11:49:21.475Z,99058.48
2019-04-14T11:50:30.104Z,99051.11
2019-04-14T11:51:38.775Z,99052.78
2019-04-14T11:52:47.078Z,99050.95
2019-04-14T11:53:55.167Z,99049.44
2019-04-14T11:55:03.782Z,99056.16
2019-04-14T11:56:12.326Z,99048.48
2019-04-14T11:57:21.426Z,99048.98
2019-04-14T11:58:29.627Z,99047.97
2019-04-14T11:59:39.460Z,99047.81
2019-04-14T12:00:47.792Z,99058.23
2019-04-14T12:01:57.867Z,99049.15
2019-04-14T12:03:07.729Z,99053.52
2019-04-14T12:04:23.423Z,99049.81
2019-04-14T12:05:45.988Z,99066.98
2019-04-14T12:06:56.028Z,99052.50
2019-04-14T12:08:08.477Z,99055.70
2019-04-14T12:09:24.864Z,99045.60
2019-04-14T12:10:33.130Z,99054.19
2019-04-14T12:11:42.519Z,99056.20
2019-04-14T12:12:51.082Z,99056.37
2019-04-14T12:13:59.904Z,99040.70
2019-04-14T12:15:16.190Z,99046.59
2019-04-14T12:16:19.316Z,99052.30
2019-04-14T12:17:27.904Z,99059.48
2019-04-14T12:18:36.491Z,99057.45
2019-04-14T12:19:44.507Z,99042.63
2019-04-14T12:20:53.007Z,99049.52
2019-04-14T12:22:08.166Z,99042.27
2019-04-14T12:23:11.403Z,99043.47
2019-04-14T12:24:20.147Z,99039.09
2019-04-14T12:25:28.674Z,99034.54
2019-04-14T12:26:36.964Z,99054.76
2019-04-14T12:27:44.962Z,99052.58
2019-04-14T12:28:53.723Z,99043.14
2019-04-14T12:30:02.024Z,99043.98
2019-04-14T12:31:11.151Z,99046.48
2019-04-14T12:32:20.504Z,99043.25
2019-04-14T12:33:28.678Z,99046.56
2019-04-14T12:34:37.329Z,99037.96
2019-04-14T12:35:45.457Z,99034.09
2019-04-14T12:36:53.788Z,99044.84
2019-04-14T12:38:02.088Z,99046.47
2019-04-14T12:39:22.962Z,99042.42
2019-04-14T12:40:31.462Z,99039.53
2019-04-14T12:41:41.278Z,99038.78
2019-04-14T12:42:56.908Z,99033.17
2019-04-14T12:44:15.955Z,99043.39
2019-04-14T12:45:44.116Z,99027.69
2019-04-14T12:46:53.857Z,99040.17
2019-04-14T12:48:16.844Z,99049.17
2019-04-14T12:49:41.847Z,99029.27
2019-04-14T12:50:51.789Z,99051.16
2019-04-14T12:51:59.917Z,99032.20
2019-04-14T12:53:08.402Z,99041.75
2019-04-14T12:54:16.483Z,99027.42
2019-04-14T12:55:24.860Z,99033.14
2019-04-14T12:56:33.038Z,99037.31
2019-04-14T12:57:48.665Z,99039.19
2019-04-14T12:58:59.350Z,99036.77
2019-04-14T13:00:45.008Z,99037.35
2019-04-14T13:03:26.460Z,99014.81
2019-04-14T13:04:34.986Z,99023.88
2019-04-14T13:05:43.022Z,99033.13
2019-04-14T13:06:51.185Z,99032.47
2019-04-14T13:07:59.587Z,99038.69
2019-04-14T13:09:08.510Z,99029.83
2019-04-14T13:10:17.201Z,99031.47
2019-04-14T13:11:25.303Z,99028.13
2019-04-14T13:12:33.831Z,99027.33
2019-04-14T13:13:42.262Z,99031.41
2019-04-14T13:14:50.524Z,99022.50
2019-04-14T13:15:59.482Z,99031.26
2019-04-14T13:17:07.878Z,99021.70
2019-04-14T13:18:16.379Z,99023.31
2019-04-14T13:19:24.740Z,99028.97
2019-04-14T13:20:33.177Z,99022.88
2019-04-14T13:21:41.707Z,99026.80
2019-04-14T13:22:50.143Z,99034.58
2019-04-14T13:23:58.370Z,99019.61
2019-04-14T13:25:07.388Z,99016.42
2019-04-14T13:26:15.876Z,99031.66
2019-04-14T13:27:24.164Z,99026.80
2019-04-14T13:28:32.421Z,99024.28
2019-04-14T13:29:40.829Z,99019.34
2019-04-14T13:30:50.879Z,99023.55
2019-04-14T13:31:59.142Z,99019.61
2019-04-14T13:33:07.546Z,99024.50
2019-04-14T13:34:16.467Z,99017.91
2019-04-14T13:35:24.896Z,99012.23
2019-04-14T13:36:33.482Z,99010.91
2019-04-14T13:37:42.122Z,99018.77
2019-04-14T13:38:50.611Z,99012.55
2019-04-14T13:39:58.781Z,99021.34
2019-04-14T13:41:06.926Z,99009.53
2019-04-14T13:42:15.421Z,99017.95
2019-04-14T13:43:23.635Z,99027.06
2019-04-14T13:44:32.116Z,99022.80
2019-04-14T13:45:40.657Z,99021.58
2019-04-14T13:46:49.243Z,99020.55
2019-04-14T13:47:57.336Z,99018.87
2019-04-14T13:49:05.882Z,99026.66
2019-04-14T13:50:14.299Z,99027.06
2019-04-14T13:51:22.437Z,99025.92
2019-04-14T13:52:31.248Z,99022.39
2019-04-14T13:53:39.464Z,99018.01
2019-04-14T13:54:47.874Z,99033.52
2019-04-14T13:55:56.075Z,99033.20
2019-04-14T13:57:04.576Z,99020.92
2019-04-14T13:58:13.021Z,99032.56
2019-04-14T13:59:21.486Z,99021.25
2019-04-14T14:00:31.793Z,99037.56
2019-04-14T14:01:40.131Z,99028.73
2019-04-14T14:02:48.423Z,99028.88
2019-04-14T14:03:56.811Z,99024.63
2019-04-14T14:05:05.624Z,99023.80
2019-04-14T14:06:13.780Z,99033.25
2019-04-14T14:07:22.032Z,99030.91
2019-04-14T14:08:30.591Z,99035.95
2019-04-14T14:09:39.067Z,99018.64
2019-04-14T14:10:47.349Z,99032.79